sensor_id;sensor_type;location;lat;lon;timestamp;P1;durP1;ratioP1;P2;durP2;ratioP2
1603;SDS011;795;49.296;11.348;2023-04-03T00:01:19;5.53;;;2.45;;
1603;SDS011;795;49.296;11.348;2023-04-03T00:03:47;2.83;;;2.40;;
1603;SDS011;795;49.296;11.348;2023-04-03T00:06:14;2.45;;;2.28;;
1603;SDS011;795;49.296;11.348;2023-04-03T00:08:41;2.78;;;2.40;;
1603;SDS011;795;49.296;11.348;2023-04-03T00:11:08;2.75;;;2.47;;
1603;SDS011;795;49.296;11.348;2023-04-03T00:13:36;3.10;;;2.80;;
1603;SDS011;795;49.296;11.348;2023-04-03T00:16:05;2.80;;;2.60;;
1603;SDS011;795;49.296;11.348;2023-04-03T00:18:34;3.83;;;2.60;;
1603;SDS011;795;49.296;11.348;2023-04-03T00:21:03;2.97;;;2.35;;
1603;SDS011;795;49.296;11.348;2023-04-03T00:23:32;2.90;;;2.70;;
1603;SDS011;795;49.296;11.348;2023-04-03T00:26:00;3.38;;;2.53;;
1603;SDS011;795;49.296;11.348;2023-04-03T00:28:27;3.70;;;3.13;;
1603;SDS011;795;49.296;11.348;2023-04-03T00:30:54;2.67;;;2.53;;
1603;SDS011;795;49.296;11.348;2023-04-03T00:33:21;3.35;;;2.90;;
1603;SDS011;795;49.296;11.348;2023-04-03T00:35:48;3.22;;;2.92;;
1603;SDS011;795;49.296;11.348;2023-04-03T00:38:16;2.90;;;2.70;;
1603;SDS011;795;49.296;11.348;2023-04-03T00:40:45;2.83;;;2.60;;
1603;SDS011;795;49.296;11.348;2023-04-03T00:43:17;2.80;;;2.60;;
1603;SDS011;795;49.296;11.348;2023-04-03T00:45:50;2.83;;;2.63;;
1603;SDS011;795;49.296;11.348;2023-04-03T00:48:23;3.55;;;3.25;;
1603;SDS011;795;49.296;11.348;2023-04-03T00:51:10;8.13;;;3.10;;
1603;SDS011;795;49.296;11.348;2023-04-03T00:53:49;3.40;;;2.97;;
1603;SDS011;795;49.296;11.348;2023-04-03T00:56:26;3.13;;;2.50;;
1603;SDS011;795;49.296;11.348;2023-04-03T00:58:58;4.10;;;3.03;;
1603;SDS011;795;49.296;11.348;2023-04-03T01:01:32;3.85;;;2.97;;
1603;SDS011;795;49.296;11.348;2023-04-03T01:04:00;3.78;;;3.13;;
1603;SDS011;795;49.296;11.348;2023-04-03T01:06:30;3.60;;;3.30;;
1603;SDS011;795;49.296;11.348;2023-04-03T01:09:03;5.60;;;3.47;;
1603;SDS011;795;49.296;11.348;2023-04-03T01:11:31;3.28;;;2.30;;
1603;SDS011;795;49.296;11.348;2023-04-03T01:13:59;3.50;;;3.20;;
1603;SDS011;795;49.296;11.348;2023-04-03T01:16:27;4.97;;;2.55;;
1603;SDS011;795;49.296;11.348;2023-04-03T01:18:57;3.15;;;2.90;;
1603;SDS011;795;49.296;11.348;2023-04-03T01:21:40;3.00;;;2.67;;
1603;SDS011;795;49.296;11.348;2023-04-03T01:24:44;5.18;;;2.40;;
1603;SDS011;795;49.296;11.348;2023-04-03T01:27:13;2.70;;;2.50;;
1603;SDS011;795;49.296;11.348;2023-04-03T01:29:40;2.90;;;2.70;;
1603;SDS011;795;49.296;11.348;2023-04-03T01:32:09;4.32;;;2.90;;
1603;SDS011;795;49.296;11.348;2023-04-03T01:34:37;2.45;;;2.35;;
1603;SDS011;795;49.296;11.348;2023-04-03T01:37:04;2.97;;;2.78;;
1603;SDS011;795;49.296;11.348;2023-04-03T01:39:31;3.15;;;2.60;;
1603;SDS011;795;49.296;11.348;2023-04-03T01:41:58;4.38;;;2.92;;
1603;SDS011;795;49.296;11.348;2023-04-03T01:44:25;4.13;;;3.17;;
1603;SDS011;795;49.296;11.348;2023-04-03T01:46:52;3.67;;;3.38;;
1603;SDS011;795;49.296;11.348;2023-04-03T01:49:19;3.30;;;3.00;;
1603;SDS011;795;49.296;11.348;2023-04-03T01:51:46;4.63;;;2.75;;
1603;SDS011;795;49.296;11.348;2023-04-03T01:54:13;3.95;;;2.90;;
1603;SDS011;795;49.296;11.348;2023-04-03T01:56:39;3.10;;;2.70;;
1603;SDS011;795;49.296;11.348;2023-04-03T01:59:06;3.15;;;2.95;;
1603;SDS011;795;49.296;11.348;2023-04-03T02:01:33;3.80;;;3.50;;
1603;SDS011;795;49.296;11.348;2023-04-03T02:04:01;3.10;;;2.90;;
1603;SDS011;795;49.296;11.348;2023-04-03T02:06:28;3.00;;;2.80;;
1603;SDS011;795;49.296;11.348;2023-04-03T02:08:54;3.40;;;3.10;;
1603;SDS011;795;49.296;11.348;2023-04-03T02:11:21;2.72;;;2.53;;
1603;SDS011;795;49.296;11.348;2023-04-03T02:13:48;3.28;;;2.97;;
1603;SDS011;795;49.296;11.348;2023-04-03T02:16:15;2.90;;;2.70;;
1603;SDS011;795;49.296;11.348;2023-04-03T02:18:42;4.30;;;3.95;;
1603;SDS011;795;49.296;11.348;2023-04-03T02:21:09;5.38;;;2.65;;
1603;SDS011;795;49.296;11.348;2023-04-03T02:23:36;3.33;;;2.90;;
1603;SDS011;795;49.296;11.348;2023-04-03T02:26:04;3.22;;;2.92;;
1603;SDS011;795;49.296;11.348;2023-04-03T02:28:38;5.32;;;3.78;;
1603;SDS011;795;49.296;11.348;2023-04-03T02:31:07;3.97;;;2.90;;
1603;SDS011;795;49.296;11.348;2023-04-03T02:33:36;3.30;;;3.10;;
1603;SDS011;795;49.296;11.348;2023-04-03T02:36:04;3.13;;;2.30;;
1603;SDS011;795;49.296;11.348;2023-04-03T02:38:34;4.18;;;3.30;;
1603;SDS011;795;49.296;11.348;2023-04-03T02:41:02;3.20;;;2.90;;
1603;SDS011;795;49.296;11.348;2023-04-03T02:43:36;5.05;;;2.80;;
1603;SDS011;795;49.296;11.348;2023-04-03T02:46:04;3.10;;;2.50;;
1603;SDS011;795;49.296;11.348;2023-04-03T02:48:32;2.70;;;2.50;;
1603;SDS011;795;49.296;11.348;2023-04-03T02:51:01;3.20;;;2.65;;
1603;SDS011;795;49.296;11.348;2023-04-03T02:53:28;3.40;;;3.10;;
1603;SDS011;795;49.296;11.348;2023-04-03T02:55:55;3.70;;;3.40;;
1603;SDS011;795;49.296;11.348;2023-04-03T02:58:22;3.67;;;2.50;;
1603;SDS011;795;49.296;11.348;2023-04-03T03:00:48;5.97;;;3.25;;
1603;SDS011;795;49.296;11.348;2023-04-03T03:03:15;3.67;;;3.28;;
1603;SDS011;795;49.296;11.348;2023-04-03T03:05:42;3.10;;;2.90;;
1603;SDS011;795;49.296;11.348;2023-04-03T03:08:09;2.70;;;2.47;;
1603;SDS011;795;49.296;11.348;2023-04-03T03:10:36;3.53;;;3.22;;
1603;SDS011;795;49.296;11.348;2023-04-03T03:13:04;3.58;;;3.38;;
1603;SDS011;795;49.296;11.348;2023-04-03T03:15:31;4.57;;;2.70;;
1603;SDS011;795;49.296;11.348;2023-04-03T03:17:57;4.88;;;3.30;;
1603;SDS011;795;49.296;11.348;2023-04-03T03:20:24;3.60;;;3.30;;
1603;SDS011;795;49.296;11.348;2023-04-03T03:22:51;3.55;;;3.20;;
1603;SDS011;795;49.296;11.348;2023-04-03T03:25:18;3.60;;;3.08;;
1603;SDS011;795;49.296;11.348;2023-04-03T03:27:45;4.13;;;3.33;;
1603;SDS011;795;49.296;11.348;2023-04-03T03:30:12;3.30;;;3.08;;
1603;SDS011;795;49.296;11.348;2023-04-03T03:32:39;3.35;;;3.08;;
1603;SDS011;795;49.296;11.348;2023-04-03T03:35:06;3.50;;;3.20;;
1603;SDS011;795;49.296;11.348;2023-04-03T03:37:34;3.30;;;2.97;;
1603;SDS011;795;49.296;11.348;2023-04-03T03:40:01;3.30;;;3.00;;
1603;SDS011;795;49.296;11.348;2023-04-03T03:42:28;3.83;;;3.10;;
1603;SDS011;795;49.296;11.348;2023-04-03T03:44:55;9.77;;;5.97;;
1603;SDS011;795;49.296;11.348;2023-04-03T03:47:22;4.47;;;4.07;;
1603;SDS011;795;49.296;11.348;2023-04-03T03:49:49;4.95;;;4.45;;
1603;SDS011;795;49.296;11.348;2023-04-03T03:52:16;6.93;;;3.83;;
1603;SDS011;795;49.296;11.348;2023-04-03T03:54:43;3.88;;;3.58;;
1603;SDS011;795;49.296;11.348;2023-04-03T03:57:10;3.80;;;3.50;;
1603;SDS011;795;49.296;11.348;2023-04-03T03:59:37;3.95;;;3.03;;
1603;SDS011;795;49.296;11.348;2023-04-03T04:02:06;6.30;;;3.72;;
1603;SDS011;795;49.296;11.348;2023-04-03T04:04:33;3.67;;;3.38;;
1603;SDS011;795;49.296;11.348;2023-04-03T04:07:00;4.97;;;3.20;;
1603;SDS011;795;49.296;11.348;2023-04-03T04:09:27;4.38;;;3.08;;
1603;SDS011;795;49.296;11.348;2023-04-03T04:11:54;4.72;;;3.75;;
1603;SDS011;795;49.296;11.348;2023-04-03T04:14:21;5.13;;;4.00;;
1603;SDS011;795;49.296;11.348;2023-04-03T04:16:48;2.90;;;2.70;;
1603;SDS011;795;49.296;11.348;2023-04-03T04:19:16;2.90;;;2.70;;
1603;SDS011;795;49.296;11.348;2023-04-03T04:21:42;3.50;;;2.70;;
1603;SDS011;795;49.296;11.348;2023-04-03T04:24:09;5.35;;;3.38;;
1603;SDS011;795;49.296;11.348;2023-04-03T04:26:37;3.30;;;3.05;;
1603;SDS011;795;49.296;11.348;2023-04-03T04:29:04;5.57;;;3.33;;
1603;SDS011;795;49.296;11.348;2023-04-03T04:31:31;3.22;;;2.92;;
1603;SDS011;795;49.296;11.348;2023-04-03T04:33:58;2.80;;;2.60;;
1603;SDS011;795;49.296;11.348;2023-04-03T04:36:25;3.42;;;3.13;;
1603;SDS011;795;49.296;11.348;2023-04-03T04:38:52;3.05;;;2.67;;
1603;SDS011;795;49.296;11.348;2023-04-03T04:41:22;5.07;;;3.40;;
1603;SDS011;795;49.296;11.348;2023-04-03T04:43:49;3.60;;;3.30;;
1603;SDS011;795;49.296;11.348;2023-04-03T04:46:17;3.83;;;3.42;;
1603;SDS011;795;49.296;11.348;2023-04-03T04:48:44;3.63;;;3.38;;
1603;SDS011;795;49.296;11.348;2023-04-03T04:51:11;5.90;;;3.22;;
1603;SDS011;795;49.296;11.348;2023-04-03T04:53:38;5.03;;;3.70;;
1603;SDS011;795;49.296;11.348;2023-04-03T04:56:06;6.25;;;3.53;;
1603;SDS011;795;49.296;11.348;2023-04-03T04:58:33;3.33;;;3.03;;
1603;SDS011;795;49.296;11.348;2023-04-03T05:01:01;4.57;;;3.35;;
1603;SDS011;795;49.296;11.348;2023-04-03T05:03:35;3.67;;;3.35;;
1603;SDS011;795;49.296;11.348;2023-04-03T05:06:03;4.90;;;3.10;;
1603;SDS011;795;49.296;11.348;2023-04-03T05:08:31;5.65;;;3.30;;
1603;SDS011;795;49.296;11.348;2023-04-03T05:10:58;4.55;;;3.80;;
1603;SDS011;795;49.296;11.348;2023-04-03T05:13:25;4.07;;;3.67;;
1603;SDS011;795;49.296;11.348;2023-04-03T05:15:51;4.55;;;3.03;;
1603;SDS011;795;49.296;11.348;2023-04-03T05:18:19;3.42;;;3.13;;
1603;SDS011;795;49.296;11.348;2023-04-03T05:20:47;4.00;;;3.65;;
1603;SDS011;795;49.296;11.348;2023-04-03T05:23:16;4.20;;;3.53;;
1603;SDS011;795;49.296;11.348;2023-04-03T05:25:44;4.22;;;3.60;;
1603;SDS011;795;49.296;11.348;2023-04-03T05:28:12;4.25;;;3.45;;
1603;SDS011;795;49.296;11.348;2023-04-03T05:30:40;3.97;;;3.20;;
1603;SDS011;795;49.296;11.348;2023-04-03T05:33:07;3.60;;;3.30;;
1603;SDS011;795;49.296;11.348;2023-04-03T05:35:35;4.45;;;3.50;;
1603;SDS011;795;49.296;11.348;2023-04-03T05:38:07;5.30;;;3.50;;
1603;SDS011;795;49.296;11.348;2023-04-03T05:40:34;4.93;;;3.85;;
1603;SDS011;795;49.296;11.348;2023-04-03T05:43:01;4.00;;;3.65;;
1603;SDS011;795;49.296;11.348;2023-04-03T05:45:29;4.32;;;3.78;;
1603;SDS011;795;49.296;11.348;2023-04-03T05:47:57;7.78;;;5.22;;
1603;SDS011;795;49.296;11.348;2023-04-03T05:50:24;8.02;;;3.58;;
1603;SDS011;795;49.296;11.348;2023-04-03T05:52:51;3.88;;;3.40;;
1603;SDS011;795;49.296;11.348;2023-04-03T05:55:24;3.90;;;3.47;;
1603;SDS011;795;49.296;11.348;2023-04-03T05:57:51;4.75;;;3.03;;
1603;SDS011;795;49.296;11.348;2023-04-03T06:00:18;4.47;;;3.47;;
1603;SDS011;795;49.296;11.348;2023-04-03T06:02:45;3.80;;;3.50;;
1603;SDS011;795;49.296;11.348;2023-04-03T06:05:13;4.40;;;3.63;;
1603;SDS011;795;49.296;11.348;2023-04-03T06:07:40;6.90;;;4.40;;
1603;SDS011;795;49.296;11.348;2023-04-03T06:10:07;3.53;;;3.30;;
1603;SDS011;795;49.296;11.348;2023-04-03T06:12:37;5.05;;;4.43;;
1603;SDS011;795;49.296;11.348;2023-04-03T06:15:04;3.30;;;3.05;;
1603;SDS011;795;49.296;11.348;2023-04-03T06:17:33;5.55;;;3.75;;
1603;SDS011;795;49.296;11.348;2023-04-03T06:20:01;4.07;;;3.67;;
1603;SDS011;795;49.296;11.348;2023-04-03T06:22:28;4.57;;;4.18;;
1603;SDS011;795;49.296;11.348;2023-04-03T06:24:56;3.88;;;3.55;;
1603;SDS011;795;49.296;11.348;2023-04-03T06:27:23;6.97;;;4.55;;
1603;SDS011;795;49.296;11.348;2023-04-03T06:29:50;6.43;;;4.22;;
1603;SDS011;795;49.296;11.348;2023-04-03T06:32:17;7.25;;;4.57;;
1603;SDS011;795;49.296;11.348;2023-04-03T06:34:44;4.00;;;3.53;;
1603;SDS011;795;49.296;11.348;2023-04-03T06:37:15;5.20;;;3.65;;
1603;SDS011;795;49.296;11.348;2023-04-03T06:39:47;5.28;;;3.17;;
1603;SDS011;795;49.296;11.348;2023-04-03T06:42:14;3.97;;;3.30;;
1603;SDS011;795;49.296;11.348;2023-04-03T06:44:42;3.90;;;3.60;;
1603;SDS011;795;49.296;11.348;2023-04-03T06:47:10;5.10;;;4.00;;
1603;SDS011;795;49.296;11.348;2023-04-03T06:49:42;4.07;;;3.33;;
1603;SDS011;795;49.296;11.348;2023-04-03T06:52:10;4.25;;;3.85;;
1603;SDS011;795;49.296;11.348;2023-04-03T06:54:38;4.22;;;3.10;;
1603;SDS011;795;49.296;11.348;2023-04-03T06:57:06;3.67;;;3.33;;
1603;SDS011;795;49.296;11.348;2023-04-03T06:59:34;3.57;;;3.27;;
1603;SDS011;795;49.296;11.348;2023-04-03T07:02:02;4.05;;;3.38;;
1603;SDS011;795;49.296;11.348;2023-04-03T07:04:30;4.93;;;3.57;;
1603;SDS011;795;49.296;11.348;2023-04-03T07:06:57;5.40;;;4.90;;
1603;SDS011;795;49.296;11.348;2023-04-03T07:09:24;5.03;;;3.23;;
1603;SDS011;795;49.296;11.348;2023-04-03T07:11:51;8.03;;;3.17;;
1603;SDS011;795;49.296;11.348;2023-04-03T07:14:18;3.60;;;3.23;;
1603;SDS011;795;49.296;11.348;2023-04-03T07:16:45;5.07;;;3.97;;
1603;SDS011;795;49.296;11.348;2023-04-03T07:19:12;6.43;;;4.30;;
1603;SDS011;795;49.296;11.348;2023-04-03T07:21:39;9.43;;;6.00;;
1603;SDS011;795;49.296;11.348;2023-04-03T07:24:07;5.93;;;4.23;;
1603;SDS011;795;49.296;11.348;2023-04-03T07:26:40;6.13;;;3.63;;
1603;SDS011;795;49.296;11.348;2023-04-03T07:29:07;5.80;;;3.77;;
1603;SDS011;795;49.296;11.348;2023-04-03T07:31:34;4.93;;;3.60;;
1603;SDS011;795;49.296;11.348;2023-04-03T07:34:02;4.17;;;3.77;;
1603;SDS011;795;49.296;11.348;2023-04-03T07:36:29;4.43;;;4.00;;
1603;SDS011;795;49.296;11.348;2023-04-03T07:38:59;3.80;;;3.50;;
1603;SDS011;795;49.296;11.348;2023-04-03T07:41:26;3.70;;;3.40;;
1603;SDS011;795;49.296;11.348;2023-04-03T07:43:52;3.63;;;3.30;;
1603;SDS011;795;49.296;11.348;2023-04-03T07:46:20;5.07;;;4.17;;
1603;SDS011;795;49.296;11.348;2023-04-03T07:48:48;3.70;;;3.40;;
1603;SDS011;795;49.296;11.348;2023-04-03T07:51:15;4.20;;;3.50;;
1603;SDS011;795;49.296;11.348;2023-04-03T07:53:42;5.90;;;3.50;;
1603;SDS011;795;49.296;11.348;2023-04-03T07:56:09;3.93;;;3.63;;
1603;SDS011;795;49.296;11.348;2023-04-03T07:58:36;4.17;;;3.07;;
1603;SDS011;795;49.296;11.348;2023-04-03T08:03:49;6.33;;;5.00;;
1603;SDS011;795;49.296;11.348;2023-04-03T08:06:17;3.87;;;3.50;;
1603;SDS011;795;49.296;11.348;2023-04-03T08:08:58;4.00;;;3.43;;
1603;SDS011;795;49.296;11.348;2023-04-03T08:11:25;3.40;;;3.10;;
1603;SDS011;795;49.296;11.348;2023-04-03T08:13:52;3.87;;;2.97;;
1603;SDS011;795;49.296;11.348;2023-04-03T08:16:20;3.07;;;2.77;;
1603;SDS011;795;49.296;11.348;2023-04-03T08:18:53;4.20;;;3.07;;
1603;SDS011;795;49.296;11.348;2023-04-03T08:21:21;2.60;;;2.40;;
1603;SDS011;795;49.296;11.348;2023-04-03T08:23:49;3.17;;;2.80;;
1603;SDS011;795;49.296;11.348;2023-04-03T08:26:18;6.03;;;3.33;;
1603;SDS011;795;49.296;11.348;2023-04-03T08:28:47;3.60;;;2.70;;
1603;SDS011;795;49.296;11.348;2023-04-03T08:31:16;4.13;;;2.50;;
1603;SDS011;795;49.296;11.348;2023-04-03T08:33:46;3.13;;;2.83;;
1603;SDS011;795;49.296;11.348;2023-04-03T08:36:19;3.67;;;2.57;;
1603;SDS011;795;49.296;11.348;2023-04-03T08:38:50;2.90;;;2.60;;
1603;SDS011;795;49.296;11.348;2023-04-03T08:44:03;4.00;;;3.17;;
1603;SDS011;795;49.296;11.348;2023-04-03T08:47:28;3.23;;;2.60;;
1603;SDS011;795;49.296;11.348;2023-04-03T08:50:15;2.67;;;2.43;;
1603;SDS011;795;49.296;11.348;2023-04-03T08:52:49;2.33;;;1.90;;
1603;SDS011;795;49.296;11.348;2023-04-03T09:00:57;5.40;;;2.40;;
1603;SDS011;795;49.296;11.348;2023-04-03T09:03:31;2.73;;;2.33;;
1603;SDS011;795;49.296;11.348;2023-04-03T09:06:22;2.77;;;2.53;;
1603;SDS011;795;49.296;11.348;2023-04-03T09:09:02;5.17;;;2.83;;
1603;SDS011;795;49.296;11.348;2023-04-03T09:12:16;2.20;;;2.00;;
1603;SDS011;795;49.296;11.348;2023-04-03T09:15:16;3.20;;;2.30;;
1603;SDS011;795;49.296;11.348;2023-04-03T09:21:22;5.77;;;2.10;;
1603;SDS011;795;49.296;11.348;2023-04-03T09:24:01;2.63;;;2.13;;
1603;SDS011;795;49.296;11.348;2023-04-03T09:26:34;2.80;;;2.57;;
1603;SDS011;795;49.296;11.348;2023-04-03T09:29:28;4.97;;;2.77;;
1603;SDS011;795;49.296;11.348;2023-04-03T09:31:56;2.77;;;2.57;;
1603;SDS011;795;49.296;11.348;2023-04-03T09:34:38;2.27;;;2.13;;
1603;SDS011;795;49.296;11.348;2023-04-03T09:37:09;2.80;;;2.60;;
1603;SDS011;795;49.296;11.348;2023-04-03T09:39:56;3.83;;;2.50;;
1603;SDS011;795;49.296;11.348;2023-04-03T09:42:24;3.00;;;2.70;;
1603;SDS011;795;49.296;11.348;2023-04-03T09:44:59;3.30;;;2.40;;
1603;SDS011;795;49.296;11.348;2023-04-03T09:47:33;3.63;;;3.00;;
1603;SDS011;795;49.296;11.348;2023-04-03T09:52:40;7.27;;;3.17;;
1603;SDS011;795;49.296;11.348;2023-04-03T09:57:57;6.03;;;4.50;;
1603;SDS011;795;49.296;11.348;2023-04-03T10:00:36;7.13;;;5.03;;
1603;SDS011;795;49.296;11.348;2023-04-03T10:03:22;5.10;;;3.40;;
1603;SDS011;795;49.296;11.348;2023-04-03T10:06:03;5.10;;;3.40;;
1603;SDS011;795;49.296;11.348;2023-04-03T10:08:58;3.17;;;2.87;;
1603;SDS011;795;49.296;11.348;2023-04-03T10:11:57;5.00;;;2.10;;
1603;SDS011;795;49.296;11.348;2023-04-03T10:14:39;16.47;;;3.13;;
1603;SDS011;795;49.296;11.348;2023-04-03T10:20:25;2.57;;;2.37;;
1603;SDS011;795;49.296;11.348;2023-04-03T10:26:12;2.40;;;2.20;;
1603;SDS011;795;49.296;11.348;2023-04-03T10:35:06;2.70;;;2.47;;
1603;SDS011;795;49.296;11.348;2023-04-03T10:46:23;2.30;;;2.10;;
1603;SDS011;795;49.296;11.348;2023-04-03T10:55:56;3.67;;;2.30;;
1603;SDS011;795;49.296;11.348;2023-04-03T10:58:43;3.47;;;2.47;;
1603;SDS011;795;49.296;11.348;2023-04-03T11:01:26;3.40;;;2.70;;
1603;SDS011;795;49.296;11.348;2023-04-03T11:04:06;2.30;;;2.20;;
1603;SDS011;795;49.296;11.348;2023-04-03T11:06:39;3.03;;;2.33;;
1603;SDS011;795;49.296;11.348;2023-04-03T11:09:21;2.13;;;2.03;;
1603;SDS011;795;49.296;11.348;2023-04-03T11:12:04;2.40;;;2.20;;
1603;SDS011;795;49.296;11.348;2023-04-03T11:14:43;2.23;;;2.00;;
1603;SDS011;795;49.296;11.348;2023-04-03T11:19:47;2.23;;;1.90;;
1603;SDS011;795;49.296;11.348;2023-04-03T11:22:50;2.50;;;2.30;;
1603;SDS011;795;49.296;11.348;2023-04-03T11:25:30;3.67;;;2.30;;
1603;SDS011;795;49.296;11.348;2023-04-03T11:28:06;3.40;;;2.40;;
1603;SDS011;795;49.296;11.348;2023-04-03T11:34:07;2.63;;;2.40;;
1603;SDS011;795;49.296;11.348;2023-04-03T11:37:05;2.60;;;1.90;;
1603;SDS011;795;49.296;11.348;2023-04-03T11:39:56;2.53;;;2.23;;
1603;SDS011;795;49.296;11.348;2023-04-03T11:42:39;2.40;;;2.20;;
1603;SDS011;795;49.296;11.348;2023-04-03T11:45:15;2.63;;;2.20;;
1603;SDS011;795;49.296;11.348;2023-04-03T11:47:49;2.47;;;2.27;;
1603;SDS011;795;49.296;11.348;2023-04-03T11:51:45;1.97;;;1.83;;
1603;SDS011;795;49.296;11.348;2023-04-03T12:06:41;2.27;;;2.07;;
1603;SDS011;795;49.296;11.348;2023-04-03T12:08:46;2.90;;;2.00;;
1603;SDS011;795;49.296;11.348;2023-04-03T12:11:28;2.37;;;1.80;;
1603;SDS011;795;49.296;11.348;2023-04-03T12:16:33;3.23;;;1.53;;
1603;SDS011;795;49.296;11.348;2023-04-03T12:29:46;1.70;;;1.60;;
1603;SDS011;795;49.296;11.348;2023-04-03T12:32:24;3.50;;;2.10;;
1603;SDS011;795;49.296;11.348;2023-04-03T12:35:23;4.03;;;1.93;;
1603;SDS011;795;49.296;11.348;2023-04-03T12:38:22;7.57;;;1.70;;
1603;SDS011;795;49.296;11.348;2023-04-03T12:41:25;2.20;;;2.00;;
1603;SDS011;795;49.296;11.348;2023-04-03T12:47:00;4.33;;;1.50;;
1603;SDS011;795;49.296;11.348;2023-04-03T12:49:48;2.80;;;1.80;;
1603;SDS011;795;49.296;11.348;2023-04-03T12:55:07;1.73;;;1.63;;
1603;SDS011;795;49.296;11.348;2023-04-03T12:57:46;1.97;;;1.60;;
1603;SDS011;795;49.296;11.348;2023-04-03T13:00:33;1.60;;;1.50;;
1603;SDS011;795;49.296;11.348;2023-04-03T13:03:05;3.80;;;2.10;;
1603;SDS011;795;49.296;11.348;2023-04-03T13:06:14;1.60;;;1.50;;
1603;SDS011;795;49.296;11.348;2023-04-03T13:08:55;1.20;;;1.20;;
1603;SDS011;795;49.296;11.348;2023-04-03T13:11:27;1.60;;;1.50;;
1603;SDS011;795;49.296;11.348;2023-04-03T13:14:15;1.83;;;1.73;;
1603;SDS011;795;49.296;11.348;2023-04-03T13:16:53;2.83;;;1.90;;
1603;SDS011;795;49.296;11.348;2023-04-03T13:19:36;1.50;;;1.40;;
1603;SDS011;795;49.296;11.348;2023-04-03T13:22:08;1.90;;;1.67;;
1603;SDS011;795;49.296;11.348;2023-04-03T13:25:22;2.37;;;2.17;;
1603;SDS011;795;49.296;11.348;2023-04-03T13:27:57;2.67;;;2.07;;
1603;SDS011;795;49.296;11.348;2023-04-03T13:30:38;4.17;;;2.60;;
1603;SDS011;795;49.296;11.348;2023-04-03T13:33:24;4.20;;;3.17;;
1603;SDS011;795;49.296;11.348;2023-04-03T13:36:00;1.87;;;1.77;;
1603;SDS011;795;49.296;11.348;2023-04-03T13:38:46;2.60;;;1.90;;
1603;SDS011;795;49.296;11.348;2023-04-03T13:41:32;1.90;;;1.70;;
1603;SDS011;795;49.296;11.348;2023-04-03T13:46:54;1.93;;;1.77;;
1603;SDS011;795;49.296;11.348;2023-04-03T13:49:44;2.30;;;1.70;;
1603;SDS011;795;49.296;11.348;2023-04-03T13:52:44;1.50;;;1.40;;
1603;SDS011;795;49.296;11.348;2023-04-03T13:58:03;2.10;;;1.60;;
1603;SDS011;795;49.296;11.348;2023-04-03T14:00:45;1.90;;;1.80;;
1603;SDS011;795;49.296;11.348;2023-04-03T14:03:23;1.67;;;1.57;;
1603;SDS011;795;49.296;11.348;2023-04-03T14:05:57;1.50;;;1.10;;
1603;SDS011;795;49.296;11.348;2023-04-03T14:08:27;2.00;;;1.90;;
1603;SDS011;795;49.296;11.348;2023-04-03T14:11:18;2.23;;;1.97;;
1603;SDS011;795;49.296;11.348;2023-04-03T14:13:53;1.63;;;1.40;;
1603;SDS011;795;49.296;11.348;2023-04-03T14:16:28;2.20;;;1.63;;
1603;SDS011;795;49.296;11.348;2023-04-03T14:19:03;1.77;;;1.50;;
1603;SDS011;795;49.296;11.348;2023-04-03T14:21:31;2.40;;;1.70;;
1603;SDS011;795;49.296;11.348;2023-04-03T14:23:58;1.80;;;1.70;;
1603;SDS011;795;49.296;11.348;2023-04-03T14:26:25;1.73;;;1.63;;
1603;SDS011;795;49.296;11.348;2023-04-03T14:28:56;5.23;;;1.80;;
1603;SDS011;795;49.296;11.348;2023-04-03T14:31:23;3.70;;;1.90;;
1603;SDS011;795;49.296;11.348;2023-04-03T14:33:50;1.73;;;1.63;;
1603;SDS011;795;49.296;11.348;2023-04-03T14:36:20;2.20;;;1.63;;
1603;SDS011;795;49.296;11.348;2023-04-03T14:38:52;2.37;;;1.80;;
1603;SDS011;795;49.296;11.348;2023-04-03T14:41:23;1.60;;;1.50;;
1603;SDS011;795;49.296;11.348;2023-04-03T14:43:53;1.87;;;1.77;;
1603;SDS011;795;49.296;11.348;2023-04-03T14:46:25;2.27;;;1.70;;
1603;SDS011;795;49.296;11.348;2023-04-03T14:49:22;3.70;;;2.10;;
1603;SDS011;795;49.296;11.348;2023-04-03T14:51:56;2.60;;;1.40;;
1603;SDS011;795;49.296;11.348;2023-04-03T14:54:24;1.73;;;1.63;;
1603;SDS011;795;49.296;11.348;2023-04-03T14:56:54;2.13;;;1.50;;
1603;SDS011;795;49.296;11.348;2023-04-03T14:59:25;6.00;;;2.20;;
1603;SDS011;795;49.296;11.348;2023-04-03T15:01:56;1.77;;;1.60;;
1603;SDS011;795;49.296;11.348;2023-04-03T15:04:23;1.47;;;1.40;;
1603;SDS011;795;49.296;11.348;2023-04-03T15:06:51;3.00;;;1.97;;
1603;SDS011;795;49.296;11.348;2023-04-03T15:09:23;1.60;;;1.50;;
1603;SDS011;795;49.296;11.348;2023-04-03T15:11:54;2.37;;;2.17;;
1603;SDS011;795;49.296;11.348;2023-04-03T15:14:21;2.27;;;1.67;;
1603;SDS011;795;49.296;11.348;2023-04-03T15:17:02;3.53;;;1.80;;
1603;SDS011;795;49.296;11.348;2023-04-03T15:19:38;3.23;;;1.73;;
1603;SDS011;795;49.296;11.348;2023-04-03T15:22:06;2.17;;;1.87;;
1603;SDS011;795;49.296;11.348;2023-04-03T15:24:39;3.93;;;1.80;;
1603;SDS011;795;49.296;11.348;2023-04-03T15:27:06;2.33;;;2.07;;
1603;SDS011;795;49.296;11.348;2023-04-03T15:29:33;2.40;;;1.70;;
1603;SDS011;795;49.296;11.348;2023-04-03T15:32:00;2.10;;;1.90;;
1603;SDS011;795;49.296;11.348;2023-04-03T15:34:27;2.67;;;1.80;;
1603;SDS011;795;49.296;11.348;2023-04-03T15:36:54;1.97;;;1.87;;
1603;SDS011;795;49.296;11.348;2023-04-03T15:39:21;4.00;;;2.93;;
1603;SDS011;795;49.296;11.348;2023-04-03T15:41:50;5.40;;;4.30;;
1603;SDS011;795;49.296;11.348;2023-04-03T15:44:18;25.23;;;5.80;;
1603;SDS011;795;49.296;11.348;2023-04-03T15:46:45;2.30;;;2.10;;
1603;SDS011;795;49.296;11.348;2023-04-03T15:49:18;2.60;;;2.40;;
1603;SDS011;795;49.296;11.348;2023-04-03T15:51:47;1.80;;;1.70;;
1603;SDS011;795;49.296;11.348;2023-04-03T15:54:15;3.73;;;2.50;;
1603;SDS011;795;49.296;11.348;2023-04-03T15:56:42;2.00;;;1.80;;
1603;SDS011;795;49.296;11.348;2023-04-03T15:59:09;2.57;;;2.00;;
1603;SDS011;795;49.296;11.348;2023-04-03T16:01:37;1.60;;;1.50;;
1603;SDS011;795;49.296;11.348;2023-04-03T16:04:05;3.63;;;1.77;;
1603;SDS011;795;49.296;11.348;2023-04-03T16:06:36;2.73;;;2.33;;
1603;SDS011;795;49.296;11.348;2023-04-03T16:09:04;9.07;;;2.40;;
1603;SDS011;795;49.296;11.348;2023-04-03T16:11:32;1.90;;;1.80;;
1603;SDS011;795;49.296;11.348;2023-04-03T16:14:01;3.70;;;2.90;;
1603;SDS011;795;49.296;11.348;2023-04-03T16:16:29;1.97;;;1.87;;
1603;SDS011;795;49.296;11.348;2023-04-03T16:18:57;3.07;;;2.17;;
1603;SDS011;795;49.296;11.348;2023-04-03T16:21:24;3.90;;;2.30;;
1603;SDS011;795;49.296;11.348;2023-04-03T16:23:53;2.97;;;2.77;;
1603;SDS011;795;49.296;11.348;2023-04-03T16:26:23;5.47;;;2.80;;
1603;SDS011;795;49.296;11.348;2023-04-03T16:28:51;2.37;;;2.17;;
1603;SDS011;795;49.296;11.348;2023-04-03T16:31:20;3.47;;;2.70;;
1603;SDS011;795;49.296;11.348;2023-04-03T16:33:50;2.50;;;1.87;;
1603;SDS011;795;49.296;11.348;2023-04-03T16:36:17;2.10;;;2.00;;
1603;SDS011;795;49.296;11.348;2023-04-03T16:38:44;2.27;;;2.07;;
1603;SDS011;795;49.296;11.348;2023-04-03T16:41:11;2.20;;;2.00;;
1603;SDS011;795;49.296;11.348;2023-04-03T16:43:38;3.23;;;2.30;;
1603;SDS011;795;49.296;11.348;2023-04-03T16:46:05;2.60;;;2.23;;
1603;SDS011;795;49.296;11.348;2023-04-03T16:48:32;3.83;;;3.10;;
1603;SDS011;795;49.296;11.348;2023-04-03T16:50:59;2.60;;;2.00;;
1603;SDS011;795;49.296;11.348;2023-04-03T16:53:27;2.97;;;2.60;;
1603;SDS011;795;49.296;11.348;2023-04-03T16:55:56;2.60;;;2.40;;
1603;SDS011;795;49.296;11.348;2023-04-03T16:58:24;4.83;;;2.20;;
1603;SDS011;795;49.296;11.348;2023-04-03T17:00:51;2.40;;;2.20;;
1603;SDS011;795;49.296;11.348;2023-04-03T17:03:19;4.00;;;2.47;;
1603;SDS011;795;49.296;11.348;2023-04-03T17:05:47;5.93;;;2.53;;
1603;SDS011;795;49.296;11.348;2023-04-03T17:08:16;6.77;;;3.20;;
1603;SDS011;795;49.296;11.348;2023-04-03T17:10:44;4.97;;;2.93;;
1603;SDS011;795;49.296;11.348;2023-04-03T17:13:11;4.00;;;3.17;;
1603;SDS011;795;49.296;11.348;2023-04-03T17:15:38;5.37;;;3.40;;